Time;durP1;ratioP1;P1;durP2;ratioP2;P2;SDS_P1;SDS_P2;PMS_P1;PMS_P2;Temp;Humidity;BMP_temperature;BMP_pressure;BME280_temperature;BME280_humidity;BME280_pressure;Samples;Min_cycle;Max_cycle;Signal;HPM_P1;HPM_P2
2022/06/07 00:00:31;;;;;;;7.55;4.38;;;;;;;16.32;68.68;101389.72;4973006;28;20472;-61
2022/06/07 00:02:57;;;;;;;6.53;4.32;;;;;;;16.29;68.49;101383.56;4971951;28;20344;-61
2022/06/07 00:05:23;;;;;;;5.50;4.28;;;;;;;16.30;68.44;101385.34;4978594;28;20038;-62
2022/06/07 00:07:49;;;;;;;10.20;4.65;;;;;;;16.17;68.93;101380.09;4997472;28;20071;-62
2022/06/07 00:10:14;;;;;;;9.60;4.78;;;;;;;16.23;68.79;101381.84;4975822;28;20060;-62
2022/06/07 00:12:40;;;;;;;7.35;4.30;;;;;;;16.24;68.48;101379.22;4969889;28;20092;-66
2022/06/07 00:15:06;;;;;;;9.18;4.70;;;;;;;16.33;68.14;101377.44;4976135;28;20037;-62
2022/06/07 00:17:31;;;;;;;5.97;4.20;;;;;;;16.39;68.08;101373.06;4987258;28;20054;-62
2022/06/07 00:19:57;;;;;;;7.38;4.63;;;;;;;16.32;68.28;101367.78;4978504;28;20486;-61
2022/06/07 00:22:23;;;;;;;7.57;4.85;;;;;;;16.33;68.57;101369.56;4979041;28;20058;-62
2022/06/07 00:24:49;;;;;;;8.68;5.07;;;;;;;16.28;68.72;101364.31;4980129;28;20036;-62
2022/06/07 00:27:15;;;;;;;7.50;4.25;;;;;;;16.36;68.76;101359.00;4979237;28;20049;-61
2022/06/07 00:29:42;;;;;;;6.53;4.43;;;;;;;16.31;68.96;101360.78;4981338;28;20052;-61
2022/06/07 00:32:08;;;;;;;6.28;4.57;;;;;;;16.33;68.26;101369.56;4979834;28;20096;-61
2022/06/07 00:34:36;;;;;;;5.95;4.30;;;;;;;16.36;68.44;101364.28;4979505;28;20537;-61
2022/06/07 00:37:02;;;;;;;8.52;5.00;;;;;;;16.28;68.47;101361.69;4973036;28;21905;-61
2022/06/07 00:39:28;;;;;;;9.43;4.72;;;;;;;16.32;68.29;101352.88;5002440;28;20099;-62
2022/06/07 00:41:54;;;;;;;6.25;4.53;;;;;;;16.38;68.28;101358.13;4981254;28;20424;-61
2022/06/07 00:44:25;;;;;;;6.78;4.70;;;;;;;16.36;68.21;101348.47;4976167;28;20416;-60
2022/06/07 00:47:00;;;;;;;8.00;4.72;;;;;;;16.35;67.83;101338.84;4966384;28;20446;-62
2022/06/07 00:49:29;;;;;;;8.23;4.90;;;;;;;16.34;67.95;101345.00;4974626;28;20060;-62
2022/06/07 00:51:55;;;;;;;7.13;5.40;;;;;;;16.28;67.20;101340.63;4982604;28;20107;-61
2022/06/07 00:54:23;;;;;;;8.02;5.45;;;;;;;16.38;66.95;101341.47;4972734;28;20042;-62
2022/06/07 00:56:50;;;;;;;6.60;5.18;;;;;;;16.36;66.54;101337.97;4972098;28;20567;-63
2022/06/07 00:59:15;;;;;;;8.10;5.55;;;;;;;16.31;66.30;101332.72;4972140;28;20065;-61
2022/06/07 01:01:41;;;;;;;8.88;6.05;;;;;;;16.38;65.42;101331.81;4983963;28;20135;-62
2022/06/07 01:04:06;;;;;;;8.43;5.43;;;;;;;16.48;65.27;101327.38;4982491;28;20050;-61
2022/06/07 01:11:59;;;;;;;7.85;6.10;;;;;;;16.55;64.65;101327.38;4968412;28;20080;-61
2022/06/07 01:14:25;;;;;;;9.40;6.07;;;;;;;16.48;64.71;101327.38;4980979;28;20113;-61
2022/06/07 01:16:50;;;;;;;8.27;6.10;;;;;;;16.45;64.52;101327.41;4968545;28;20537;-61
2022/06/07 01:19:15;;;;;;;8.07;5.82;;;;;;;16.57;64.26;101330.00;4980711;28;20623;-60
2022/06/07 01:21:41;;;;;;;8.32;5.95;;;;;;;16.53;64.61;101325.59;4984391;28;20651;-62
2022/06/07 01:24:07;;;;;;;9.43;5.93;;;;;;;16.55;64.57;101322.09;4974841;28;20039;-61
2022/06/07 01:26:34;;;;;;;8.25;5.93;;;;;;;16.57;64.43;101322.09;4980208;28;20091;-62
2022/06/07 01:29:01;;;;;;;7.70;5.72;;;;;;;16.54;64.63;101316.84;4968591;28;20243;-62
2022/06/07 01:31:27;;;;;;;9.60;6.05;;;;;;;16.48;64.90;101314.22;4980443;28;20048;-62
2022/06/07 01:33:53;;;;;;;8.75;5.90;;;;;;;16.49;64.71;101316.88;4975409;28;20042;-61
2022/06/07 01:36:19;;;;;;;10.13;6.50;;;;;;;16.41;64.90;101315.13;4978288;28;20208;-61
2022/06/07 01:38:45;;;;;;;8.25;5.78;;;;;;;16.48;65.10;101312.47;4970387;28;20037;-62
2022/06/07 01:43:56;;;;;;;9.30;5.97;;;;;;;16.51;65.07;101306.34;5000097;28;20457;-62
2022/06/07 01:46:22;;;;;;;10.75;6.07;;;;;;;16.48;64.96;101311.59;4968182;28;20412;-62
2022/06/07 01:48:48;;;;;;;9.20;5.72;;;;;;;16.48;65.15;101311.59;4965715;28;20034;-62
2022/06/07 01:51:14;;;;;;;9.57;5.93;;;;;;;16.51;65.06;101308.97;4997163;28;20546;-61
2022/06/07 01:53:40;;;;;;;9.98;6.20;;;;;;;16.53;64.71;101312.44;4981130;28;20808;-62
2022/06/07 01:56:15;;;;;;;8.20;6.05;;;;;;;16.54;64.80;101312.44;4986660;28;20097;-61
2022/06/07 01:58:43;;;;;;;9.73;6.05;;;;;;;16.54;64.87;101309.81;4967300;28;20238;-63
2022/06/07 02:01:09;;;;;;;8.80;5.80;;;;;;;16.54;64.87;101307.19;4978877;28;20060;-61
2022/06/07 02:03:34;;;;;;;9.52;5.95;;;;;;;16.50;64.75;101308.09;4972461;28;20045;-61
2022/06/07 02:06:03;;;;;;;7.65;5.70;;;;;;;16.57;64.77;101309.81;4976033;28;20038;-61
2022/06/07 02:08:28;;;;;;;8.93;6.00;;;;;;;16.50;64.76;101307.22;4980098;28;20049;-62
2022/06/07 02:10:55;;;;;;;10.68;6.25;;;;;;;16.44;65.01;101297.59;4970064;28;20508;-62
2022/06/07 02:13:21;;;;;;;9.80;6.28;;;;;;;16.44;65.22;101296.72;4967399;28;20041;-61
2022/06/07 02:15:50;;;;;;;9.60;6.45;;;;;;;16.44;65.33;101301.97;4996390;28;20567;-62
2022/06/07 02:18:16;;;;;;;13.65;6.47;;;;;;;16.40;65.02;101298.50;4982216;28;20136;-62
2022/06/07 02:20:42;;;;;;;9.20;6.47;;;;;;;16.45;64.75;101295.84;4971520;28;20467;-61
2022/06/07 02:23:08;;;;;;;9.80;6.40;;;;;;;16.44;64.88;101297.59;4977767;28;20134;-61
2022/06/07 02:25:41;;;;;;;11.18;6.97;;;;;;;16.34;64.94;101297.63;4989997;28;20180;-61
2022/06/07 02:28:07;;;;;;;10.45;6.50;;;;;;;16.36;64.99;101301.13;4977038;28;20489;-60
2022/06/07 02:30:33;;;;;;;10.40;6.10;;;;;;;16.42;64.86;101299.34;4974294;28;20188;-61
2022/06/07 02:32:58;;;;;;;8.68;6.28;;;;;;;16.33;65.33;101290.63;4963147;28;20049;-61
2022/06/07 02:35:24;;;;;;;10.30;6.40;;;;;;;16.38;64.84;101296.72;4976819;28;20507;-62
2022/06/07 02:37:49;;;;;;;7.72;5.57;;;;;;;16.42;64.76;101296.72;4975846;28;20065;-61
2022/06/07 02:40:14;;;;;;;7.63;5.28;;;;;;;16.40;64.94;101292.34;4974783;28;20586;-60
2022/06/07 02:42:41;;;;;;;8.57;5.72;;;;;;;16.38;64.99;101288.84;4964560;28;20339;-63
2022/06/07 02:45:06;;;;;;;7.93;5.85;;;;;;;16.35;65.10;101286.19;4984047;28;20537;-62
2022/06/07 02:47:32;;;;;;;8.52;5.80;;;;;;;16.38;64.96;101291.47;4976959;28;20056;-62
2022/06/07 02:49:57;;;;;;;8.32;5.60;;;;;;;16.40;65.11;101285.34;4973876;28;20120;-62
2022/06/07 02:52:23;;;;;;;8.13;5.63;;;;;;;16.38;65.05;101289.72;4978882;28;20053;-62
2022/06/07 02:54:48;;;;;;;10.65;6.00;;;;;;;16.37;65.22;101282.69;4974011;28;20128;-61
2022/06/07 02:57:15;;;;;;;10.10;5.53;;;;;;;16.32;65.26;101275.72;4973252;28;20046;-62
2022/06/07 02:59:40;;;;;;;8.95;5.93;;;;;;;16.35;65.10;101281.81;4978579;28;20071;-62
2022/06/07 03:02:06;;;;;;;9.00;5.68;;;;;;;16.24;65.50;101281.88;4987730;28;20489;-62
2022/06/07 03:04:31;;;;;;;11.38;5.43;;;;;;;16.29;65.29;101276.59;4983820;28;20103;-61
2022/06/07 03:06:57;;;;;;;12.75;5.38;;;;;;;16.35;65.25;101280.94;4969750;28;21071;-62
2022/06/07 03:09:23;;;;;;;8.63;5.38;;;;;;;16.31;65.21;101272.19;4981622;28;20053;-61
2022/06/07 03:11:49;;;;;;;11.13;5.43;;;;;;;16.26;65.37;101284.50;4994626;28;20899;-61
2022/06/07 03:14:14;;;;;;;8.48;5.38;;;;;;;16.29;65.39;101283.59;4983725;28;20390;-63
2022/06/07 03:16:40;;;;;;;8.00;5.20;;;;;;;16.34;65.08;101281.84;4976725;28;20087;-62
2022/06/07 03:19:06;;;;;;;7.82;5.05;;;;;;;16.39;64.82;101283.56;4975624;28;20045;-62
2022/06/07 03:21:32;;;;;;;9.98;6.03;;;;;;;16.38;64.61;101281.81;4980496;28;20917;-61
2022/06/07 03:23:57;;;;;;;8.23;5.30;;;;;;;16.35;64.77;101287.09;4980445;28;20053;-62
2022/06/07 03:26:23;;;;;;;8.40;5.78;;;;;;;16.36;64.47;101285.31;4980535;28;20045;-61
2022/06/07 03:28:48;;;;;;;8.50;5.60;;;;;;;16.34;64.75;101287.13;4969965;28;20045;-63
2022/06/07 03:31:16;;;;;;;9.02;5.65;;;;;;;16.36;64.79;101287.97;4975910;28;20049;-63
2022/06/07 03:33:43;;;;;;;8.68;6.30;;;;;;;16.36;64.71;101285.31;4987289;28;20056;-62
2022/06/07 03:36:11;;;;;;;9.68;5.93;;;;;;;16.44;64.56;101294.97;4974563;28;20174;-62
2022/06/07 03:38:41;;;;;;;8.15;5.63;;;;;;;16.46;64.17;101287.94;4968178;28;20133;-60
2022/06/07 03:41:06;;;;;;;7.20;5.13;;;;;;;16.48;64.29;101295.81;4978472;28;20081;-61
2022/06/07 03:43:32;;;;;;;8.63;5.80;;;;;;;16.47;64.56;101294.06;4984364;28;20125;-62
2022/06/07 03:46:13;;;;;;;9.77;5.68;;;;;;;16.48;64.20;101288.78;4981602;28;20041;-62
2022/06/07 03:48:41;;;;;;;7.75;5.10;;;;;;;16.55;64.05;101294.91;4973566;28;21619;-62
2022/06/07 03:51:07;;;;;;;8.13;5.47;;;;;;;16.54;64.53;101301.03;4980951;28;20132;-61
2022/06/07 03:53:32;;;;;;;8.80;5.65;;;;;;;16.58;64.45;101298.41;4981426;28;20053;-61
2022/06/07 03:55:58;;;;;;;7.93;5.05;;;;;;;16.66;64.12;101303.66;4984459;28;21246;-62
2022/06/07 03:58:23;;;;;;;9.13;5.97;;;;;;;16.64;64.47;101297.53;4980222;28;20417;-62
2022/06/07 04:00:48;;;;;;;7.40;5.30;;;;;;;16.71;64.14;101301.88;4972453;28;20041;-62
2022/06/07 04:03:14;;;;;;;8.25;5.53;;;;;;;16.71;64.22;101308.94;4979407;28;20561;-62
2022/06/07 04:05:46;;;;;;;8.98;5.50;;;;;;;16.75;64.09;101311.53;4981539;28;20674;-61
2022/06/07 04:08:12;;;;;;;8.55;5.28;;;;;;;16.78;64.20;101300.97;4986936;28;20056;-62
2022/06/07 04:10:48;;;;;;;8.10;5.32;;;;;;;16.78;64.64;101308.84;4979634;28;20034;-63
2022/06/07 04:13:14;;;;;;;9.15;5.18;;;;;;;16.83;64.12;101312.34;4985136;28;20601;-62
2022/06/07 04:15:41;;;;;;;8.48;5.25;;;;;;;16.93;63.99;101308.78;4979986;28;20045;-61
2022/06/07 04:18:07;;;;;;;7.78;5.10;;;;;;;16.95;63.85;101309.66;4979670;28;20072;-62
2022/06/07 04:20:32;;;;;;;8.90;5.40;;;;;;;16.81;64.89;101307.97;4977340;28;20102;-61
2022/06/07 04:22:57;;;;;;;7.63;4.80;;;;;;;16.95;64.08;101312.31;4969996;28;20117;-61
2022/06/07 04:25:23;;;;;;;8.82;5.53;;;;;;;17.03;64.33;101314.88;4984065;28;20033;-62
2022/06/07 04:27:48;;;;;;;9.20;5.70;;;;;;;17.07;64.05;101311.34;4985158;28;20037;-62
2022/06/07 04:30:14;;;;;;;9.02;5.38;;;;;;;17.02;64.09;101316.63;4979855;28;20653;-61
2022/06/07 04:32:46;;;;;;;9.93;5.45;;;;;;;17.13;63.85;101316.59;4973038;28;20038;-64
2022/06/07 04:35:12;;;;;;;9.18;5.10;;;;;;;17.22;63.32;101315.63;4984547;28;20049;-62
2022/06/07 04:37:38;;;;;;;8.90;5.38;;;;;;;17.21;63.34;101316.50;4986815;28;20068;-62
2022/06/07 04:40:04;;;;;;;9.60;5.30;;;;;;;17.38;62.72;101317.28;4981241;28;20140;-62
2022/06/07 04:42:29;;;;;;;8.65;5.63;;;;;;;17.43;62.78;101318.13;4995008;28;20044;-62
2022/06/07 04:44:54;;;;;;;7.85;5.57;;;;;;;17.50;62.74;101318.97;4979001;28;20247;-62
2022/06/07 04:47:20;;;;;;;8.70;5.30;;;;;;;17.60;62.48;101317.97;4984418;28;20050;-62
2022/06/07 04:49:46;;;;;;;8.77;5.65;;;;;;;17.68;62.30;101316.19;4971133;28;20404;-63
2022/06/07 04:52:11;;;;;;;9.93;6.05;;;;;;;17.76;62.07;101316.97;4976857;28;20068;-62
2022/06/07 04:54:36;;;;;;;10.75;5.90;;;;;;;17.78;61.53;101315.22;4978068;28;20068;-62
2022/06/07 04:57:02;;;;;;;9.48;5.80;;;;;;;17.93;61.14;101316.84;4974702;28;20095;-62
2022/06/07 04:59:28;;;;;;;9.38;6.07;;;;;;;17.95;61.09;101320.31;4980887;28;20044;-62
2022/06/07 05:01:53;;;;;;;10.63;5.88;;;;;;;17.95;60.86;101320.31;4984608;28;20053;-62
2022/06/07 05:04:19;;;;;;;11.18;5.93;;;;;;;18.10;60.27;101318.41;4979837;28;20042;-62
2022/06/07 05:06:46;;;;;;;8.98;6.07;;;;;;;18.19;59.72;101320.06;4970408;28;20037;-62
2022/06/07 05:09:14;;;;;;;8.30;5.60;;;;;;;18.33;58.62;101317.28;4981354;28;20041;-61
2022/06/07 05:11:39;;;;;;;10.18;6.20;;;;;;;18.36;58.37;101319.91;4979310;28;20069;-63
2022/06/07 05:14:06;;;;;;;8.07;5.90;;;;;;;18.40;58.69;101319.84;4981648;28;20131;-63
2022/06/07 05:16:38;;;;;;;9.60;5.85;;;;;;;18.70;58.33;101320.41;4981071;28;20037;-62
2022/06/07 05:19:04;;;;;;;9.48;6.03;;;;;;;18.88;58.06;101328.94;4976003;28;20048;-61
2022/06/07 05:21:29;;;;;;;11.43;6.05;;;;;;;18.74;57.61;101325.59;4978524;28;20045;-61
2022/06/07 05:23:55;;;;;;;7.93;5.65;;;;;;;18.91;56.82;101320.97;4977804;28;20508;-62
2022/06/07 05:26:29;;;;;;;9.38;5.28;;;;;;;19.16;56.33;101325.91;4979293;28;20045;-62
2022/06/07 05:28:56;;;;;;;8.45;5.90;;;;;;;18.92;55.82;101320.06;4965607;28;20121;-63
2022/06/07 05:31:22;;;;;;;9.63;5.47;;;;;;;19.08;56.31;101328.69;4978113;28;20695;-63
2022/06/07 05:33:48;;;;;;;12.00;5.60;;;;;;;19.04;56.37;101322.53;4980370;28;20148;-61
2022/06/07 05:36:14;;;;;;;9.63;6.10;;;;;;;19.02;56.03;101320.84;4984809;28;20049;-61
2022/06/07 05:38:39;;;;;;;9.75;5.88;;;;;;;19.08;56.41;101315.47;4967361;28;20226;-61
2022/06/07 05:41:05;;;;;;;9.85;6.10;;;;;;;19.09;56.13;101321.63;4974440;28;20511;-62
2022/06/07 05:43:33;;;;;;;8.82;5.72;;;;;;;19.12;56.21;101324.22;4973910;28;20052;-62
2022/06/07 05:46:00;;;;;;;8.43;5.78;;;;;;;19.23;56.38;101330.22;5019213;28;20583;-63
2022/06/07 05:48:25;;;;;;;9.68;5.97;;;;;;;19.44;55.89;101330.78;4972190;28;20045;-63
2022/06/07 05:50:52;;;;;;;9.15;5.95;;;;;;;19.57;55.30;101333.25;4965631;28;20536;-63
2022/06/07 05:53:19;;;;;;;8.32;5.78;;;;;;;19.67;55.23;101341.00;4979440;28;20344;-63
2022/06/07 05:55:44;;;;;;;10.95;6.07;;;;;;;19.31;55.69;101333.63;4975607;28;20511;-62
2022/06/07 05:58:10;;;;;;;10.02;6.07;;;;;;;19.67;54.24;101330.44;4973237;28;20054;-62
2022/06/07 06:00:37;;;;;;;11.00;6.18;;;;;;;19.74;53.75;101328.56;4969167;28;20394;-61
2022/06/07 06:03:03;;;;;;;10.77;6.15;;;;;;;19.67;53.53;101341.00;4978709;28;20475;-62
2022/06/07 06:05:28;;;;;;;12.57;6.50;;;;;;;19.76;54.09;101338.19;4996350;28;20554;-63
2022/06/07 06:10:38;;;;;;;11.02;6.65;;;;;;;19.71;53.36;101339.16;4982516;28;20123;-62
2022/06/07 06:13:04;;;;;;;10.05;6.28;;;;;;;19.83;53.82;101341.59;4980532;28;21004;-63
2022/06/07 06:15:29;;;;;;;10.70;6.20;;;;;;;19.98;53.92;101336.06;4979836;28;20179;-63
2022/06/07 06:17:55;;;;;;;9.73;6.80;;;;;;;19.94;53.19;101337.03;4990485;28;20126;-63
2022/06/07 06:20:21;;;;;;;11.30;7.00;;;;;;;19.99;52.57;101334.28;4986103;28;20374;-63
2022/06/07 06:22:47;;;;;;;9.88;6.50;;;;;;;20.93;51.67;101343.88;4971658;28;20037;-62
2022/06/07 06:25:13;;;;;;;9.38;6.40;;;;;;;21.02;49.41;101343.69;4979040;28;20047;-62
2022/06/07 06:27:39;;;;;;;12.38;6.40;;;;;;;21.30;48.86;101337.78;4986865;28;20570;-62
2022/06/07 06:30:07;;;;;;;11.00;6.40;;;;;;;21.24;48.46;101344.09;4986053;28;20304;-62
2022/06/07 06:32:32;;;;;;;9.63;6.63;;;;;;;21.70;48.46;101335.94;4987312;28;20041;-63
2022/06/07 06:34:58;;;;;;;9.10;6.18;;;;;;;22.39;47.59;101339.41;4973279;28;20071;-62
2022/06/07 06:37:25;;;;;;;9.80;5.93;;;;;;;22.52;45.23;101343.47;4978474;28;20492;-62
2022/06/07 06:39:51;;;;;;;11.07;6.40;;;;;;;22.40;45.79;101342.03;4975732;28;20487;-63
2022/06/07 06:42:16;;;;;;;10.30;6.22;;;;;;;22.36;46.33;101342.19;4987814;28;20051;-63
2022/06/07 06:44:42;;;;;;;13.23;6.20;;;;;;;22.04;46.87;101348.34;4971985;28;20037;-62
2022/06/07 06:47:07;;;;;;;9.05;6.38;;;;;;;21.92;47.82;101349.50;4986965;28;20279;-63
2022/06/07 06:49:33;;;;;;;12.18;6.07;;;;;;;21.72;48.15;101344.69;4978150;28;20053;-63
2022/06/07 06:51:59;;;;;;;13.23;6.70;;;;;;;21.26;49.46;101344.94;4980425;28;20634;-62
2022/06/07 06:54:26;;;;;;;8.75;6.43;;;;;;;21.10;49.10;101355.91;4972583;28;20124;-62
2022/06/07 06:56:52;;;;;;;11.27;6.25;;;;;;;20.88;49.89;101361.66;4976894;28;20049;-63
2022/06/07 06:59:18;;;;;;;11.60;5.95;;;;;;;20.99;48.50;101356.13;4980337;28;20784;-61
2022/06/07 07:01:43;;;;;;;10.38;6.60;;;;;;;20.86;49.51;101354.69;5013399;28;20304;-64
2022/06/07 07:04:13;;;;;;;13.20;6.88;;;;;;;20.85;49.37;101356.44;4980518;28;20315;-62
2022/06/07 07:06:39;;;;;;;9.52;6.47;;;;;;;21.18;49.89;101367.22;4977877;28;20041;-61
2022/06/07 07:09:06;;;;;;;14.40;6.38;;;;;;;22.03;47.96;101357.22;4975407;28;20060;-63
2022/06/07 07:11:38;;;;;;;9.60;6.05;;;;;;;22.67;47.35;101364.31;4969427;28;20347;-64
2022/06/07 07:14:06;;;;;;;9.38;5.97;;;;;;;23.11;45.77;101351.53;4983366;28;20525;-62
2022/06/07 07:16:33;;;;;;;11.18;6.03;;;;;;;23.17;44.87;101359.31;4980666;28;20112;-62
2022/06/07 07:18:59;;;;;;;12.40;5.90;;;;;;;23.28;45.12;101352.75;4968295;28;20167;-63
2022/06/07 07:21:28;;;;;;;10.85;6.13;;;;;;;23.13;44.81;101350.53;4984686;28;20052;-65
2022/06/07 07:23:56;;;;;;;10.23;6.28;;;;;;;23.11;44.79;101352.41;4982292;28;20421;-63
2022/06/07 07:26:24;;;;;;;7.68;5.80;;;;;;;23.09;45.37;101353.34;4978449;28;20502;-61
2022/06/07 07:28:52;;;;;;;8.15;5.78;;;;;;;23.46;44.85;101361.91;4973723;28;21361;-63
2022/06/07 07:31:21;;;;;;;12.43;6.00;;;;;;;23.15;45.13;101359.34;4975089;28;20172;-62
2022/06/07 07:33:47;;;;;;;9.77;5.88;;;;;;;22.97;45.98;101358.13;4985896;28;20417;-63
2022/06/07 07:36:12;;;;;;;9.23;5.80;;;;;;;22.83;44.99;101360.31;4988755;28;20347;-62
2022/06/07 07:38:39;;;;;;;8.55;6.10;;;;;;;23.28;44.26;101360.72;4976336;28;20033;-62
2022/06/07 07:41:18;;;;;;;8.32;5.43;;;;;;;23.52;42.78;101367.09;4974480;28;20850;-62
2022/06/07 07:43:45;;;;;;;9.65;5.63;;;;;;;24.07;43.13;101360.78;4982416;28;20443;-64
2022/06/07 07:46:12;;;;;;;10.85;5.97;;;;;;;24.21;42.20;101355.84;4982545;28;20103;-64
2022/06/07 07:48:37;;;;;;;9.73;5.93;;;;;;;24.10;42.32;101350.00;4974711;28;20103;-62
2022/06/07 07:51:06;;;;;;;9.43;5.60;;;;;;;24.05;42.62;101357.28;4973335;28;20053;-63
2022/06/07 07:53:31;;;;;;;9.20;5.88;;;;;;;24.09;41.82;101358.06;4978841;28;20037;-67
2022/06/07 07:55:57;;;;;;;10.73;6.30;;;;;;;24.12;40.64;101358.81;4981622;28;20501;-63
2022/06/07 07:58:23;;;;;;;11.45;6.10;;;;;;;23.62;42.07;101360.53;4991260;28;20812;-63
2022/06/07 08:00:49;;;;;;;11.85;6.22;;;;;;;22.86;43.24;101365.56;4977649;28;20044;-62
2022/06/07 08:03:15;;;;;;;11.88;6.18;;;;;;;23.29;43.78;101369.56;4982765;28;20178;-63
2022/06/07 08:05:41;;;;;;;10.75;6.07;;;;;;;23.75;43.13;101367.19;4977179;28;20048;-63
2022/06/07 08:08:10;;;;;;;10.25;5.88;;;;;;;24.09;42.54;101364.25;4983032;28;20472;-63
2022/06/07 08:10:38;;;;;;;10.95;5.63;;;;;;;25.00;40.81;101371.63;4982666;28;20383;-63
2022/06/07 08:13:05;;;;;;;11.20;5.45;;;;;;;25.86;38.15;101374.41;4978078;28;20092;-64
2022/06/07 08:15:33;;;;;;;7.57;5.68;;;;;;;25.86;38.79;101371.72;4980410;28;20520;-63
2022/06/07 08:18:01;;;;;;;8.35;5.40;;;;;;;25.56;39.58;101378.31;4978178;28;20459;-63
2022/06/07 08:20:29;;;;;;;8.25;5.57;;;;;;;25.07;39.73;101371.41;4986367;28;20042;-64
2022/06/07 08:22:54;;;;;;;8.85;5.57;;;;;;;24.77;39.12;101366.25;4977689;28;20444;-64
2022/06/07 08:25:20;;;;;;;8.45;5.35;;;;;;;24.41;40.89;101363.16;4987083;28;20508;-63
2022/06/07 08:27:45;;;;;;;7.70;5.47;;;;;;;24.55;40.03;101370.66;4986906;28;20128;-63
2022/06/07 08:30:11;;;;;;;8.77;5.60;;;;;;;24.31;41.59;101363.53;4983785;28;20371;-64
2022/06/07 08:32:38;;;;;;;10.50;6.00;;;;;;;23.53;41.99;101359.97;4980005;28;20080;-63
2022/06/07 08:37:48;;;;;;;6.80;5.30;;;;;;;24.44;40.91;101365.72;4985223;28;20446;-65
2022/06/07 08:40:20;;;;;;;8.50;4.97;;;;;;;25.39;38.69;101360.31;4986356;28;20049;-65
2022/06/07 08:42:52;;;;;;;6.93;4.53;;;;;;;25.62;38.48;101359.38;4977073;28;20037;-65
2022/06/07 08:45:31;;;;;;;7.47;4.78;;;;;;;25.93;37.37;101358.97;4985212;28;20605;-64
2022/06/07 08:47:59;;;;;;;6.00;4.60;;;;;;;25.91;37.65;101356.41;4986556;28;21243;-66
2022/06/07 08:50:36;;;;;;;9.18;4.60;;;;;;;25.69;38.56;101363.56;4984570;28;20052;-63
2022/06/07 08:53:31;;;;;;;7.47;4.30;;;;;;;25.06;38.33;101362.53;4980417;28;20304;-62
2022/06/07 08:55:59;;;;;;;7.25;4.20;;;;;;;25.56;37.10;101370.28;4988082;28;20038;-63
2022/06/07 08:58:33;;;;;;;6.00;4.18;;;;;;;25.39;38.56;101370.97;4980203;28;20099;-63
2022/06/07 09:01:07;;;;;;;8.48;4.72;;;;;;;25.22;37.04;101374.31;4971783;28;20235;-63
2022/06/07 09:04:05;;;;;;;7.25;4.57;;;;;;;25.22;41.04;101373.47;4988727;28;20136;-63
2022/06/07 09:06:37;;;;;;;6.40;4.20;;;;;;;25.34;38.57;101373.84;4984193;28;20037;-63
2022/06/07 09:09:04;;;;;;;6.35;4.28;;;;;;;25.83;38.83;101366.53;4976934;28;20056;-63
2022/06/07 09:14:39;;;;;;;6.75;4.50;;;;;;;25.98;36.54;101362.34;4988837;28;20452;-63
2022/06/07 09:17:11;;;;;;;5.78;4.45;;;;;;;25.72;37.17;101356.31;4980446;28;20551;-66
2022/06/07 09:19:38;;;;;;;7.10;4.53;;;;;;;25.32;37.37;101362.34;4984365;28;20037;-64
2022/06/07 09:22:14;;;;;;;7.63;4.88;;;;;;;25.27;37.87;101360.78;4983038;28;20037;-61
2022/06/07 09:24:48;;;;;;;5.90;4.50;;;;;;;25.34;37.32;101360.50;4981840;28;20042;-62
2022/06/07 09:27:24;;;;;;;5.78;4.72;;;;;;;24.83;37.14;101360.69;4985450;28;20072;-63
2022/06/07 09:29:56;;;;;;;8.02;4.97;;;;;;;24.56;38.51;101362.59;4985722;28;20034;-63
2022/06/07 09:32:25;;;;;;;7.83;5.00;;;;;;;24.69;39.04;101363.03;4982176;28;20164;-64
2022/06/07 09:34:56;;;;;;;7.13;4.88;;;;;;;24.84;38.13;101354.44;4974836;28;20338;-62
2022/06/07 09:37:28;;;;;;;6.78;4.55;;;;;;;25.02;39.07;101363.56;4985240;28;20141;-63
2022/06/07 09:40:00;;;;;;;5.53;4.53;;;;;;;24.83;38.50;101357.16;4983045;28;20107;-64
2022/06/07 09:42:29;;;;;;;7.63;5.10;;;;;;;25.29;37.46;101361.63;4981041;28;20397;-63
2022/06/07 09:45:17;;;;;;;5.68;4.47;;;;;;;25.46;37.13;101365.34;4973749;28;20037;-65
2022/06/07 09:47:43;;;;;;;5.45;4.18;;;;;;;25.49;37.08;101369.69;5000493;28;20083;-62
2022/06/07 09:50:17;;;;;;;7.30;4.50;;;;;;;26.04;36.56;101357.63;4987609;28;20133;-65
2022/06/07 09:52:47;;;;;;;5.55;4.25;;;;;;;25.93;37.57;101358.97;4978475;28;20056;-64
2022/06/07 09:55:46;;;;;;;6.05;3.95;;;;;;;26.07;39.07;101368.16;4992716;28;20121;-64
2022/06/07 09:58:14;;;;;;;8.07;4.72;;;;;;;26.07;36.30;101361.94;4988725;28;20110;-63
2022/06/07 10:00:58;;;;;;;6.30;4.55;;;;;;;25.32;37.68;101373.03;4977970;28;20121;-64
2022/06/07 10:03:45;;;;;;;6.15;4.57;;;;;;;25.13;37.55;101371.16;4988956;28;20049;-64
2022/06/07 10:06:22;;;;;;;6.60;4.40;;;;;;;24.75;37.66;101375.25;4987681;28;20623;-62
2022/06/07 10:09:12;;;;;;;6.13;4.50;;;;;;;24.10;40.20;101379.31;4974106;28;20038;-62
2022/06/07 10:12:04;;;;;;;6.45;4.97;;;;;;;24.55;39.28;101371.53;4991904;28;20560;-64
2022/06/07 10:14:48;;;;;;;7.18;4.78;;;;;;;24.51;39.27;101369.03;4982151;28;20786;-63
2022/06/07 10:17:33;;;;;;;;;;;;;;;24.75;40.49;101369.91;4983399;28;20064;-62
2022/06/07 10:20:23;;;;;;;7.78;5.13;;;;;;;25.34;37.06;101370.31;4984312;28;19921;-61
2022/06/07 10:23:05;;;;;;;6.22;4.78;;;;;;;25.53;36.73;101367.75;4986462;28;20057;-64
2022/06/07 10:26:07;;;;;;;7.07;4.90;;;;;;;25.36;36.53;101364.00;4984837;28;20044;-64
2022/06/07 10:28:38;;;;;;;6.55;4.80;;;;;;;25.00;38.29;101366.31;4979799;28;20124;-62
2022/06/07 10:31:20;;;;;;;6.70;5.47;;;;;;;24.66;39.43;101369.31;4977542;28;20463;-64
2022/06/07 10:33:57;;;;;;;5.80;4.60;;;;;;;24.82;38.48;101371.44;4986438;28;20659;-62
2022/06/07 10:36:29;;;;;;;6.63;4.93;;;;;;;25.27;39.34;101374.13;4982761;28;20033;-63
2022/06/07 10:39:10;;;;;;;7.57;5.68;;;;;;;25.16;38.76;101373.69;4975635;28;20281;-63
2022/06/07 10:41:35;;;;;;;6.78;5.13;;;;;;;25.27;39.24;101368.81;4985338;28;20057;-65
2022/06/07 10:44:00;;;;;;;6.63;5.40;;;;;;;25.52;38.13;101374.03;4988630;28;20461;-63
2022/06/07 10:46:28;;;;;;;7.03;5.05;;;;;;;25.65;37.63;101360.16;4988987;28;20469;-64
2022/06/07 10:49:24;;;;;;;8.20;5.82;;;;;;;24.98;38.93;101368.16;4969971;28;20049;-63
2022/06/07 10:52:20;;;;;;;7.93;5.50;;;;;;;24.73;39.78;101367.31;4991672;28;20057;-64
2022/06/07 10:55:22;;;;;;;6.68;5.20;;;;;;;25.15;39.37;101375.50;4973668;28;20504;-62
2022/06/07 10:57:48;;;;;;;7.35;5.03;;;;;;;24.67;39.47;101378.19;4976359;28;20041;-64
2022/06/07 11:00:22;;;;;;;7.75;5.65;;;;;;;24.14;40.20;101374.75;4974659;28;20388;-65
2022/06/07 11:03:31;;;;;;;8.63;5.97;;;;;;;23.71;41.71;101380.66;4962675;28;20540;-63
2022/06/07 11:09:20;;;;;;;8.90;5.85;;;;;;;23.64;41.53;101381.78;4972356;28;20251;-64
2022/06/07 11:11:48;;;;;;;9.05;5.38;;;;;;;24.06;44.62;101385.66;4963187;28;20048;-63
2022/06/07 11:14:47;;;;;;;8.10;5.55;;;;;;;24.38;41.85;101384.59;4983161;28;20064;-64
2022/06/07 11:17:28;;;;;;;9.45;6.15;;;;;;;24.53;41.09;101381.34;4973182;28;20045;-65
2022/06/07 11:19:58;;;;;;;7.10;5.38;;;;;;;24.55;42.20;101383.97;4980025;28;20076;-64
2022/06/07 11:22:31;;;;;;;8.23;6.50;;;;;;;24.48;41.67;101386.00;4987699;28;20037;-62
2022/06/07 11:25:01;;;;;;;9.35;6.00;;;;;;;24.00;41.70;101375.22;4967936;28;20566;-63
2022/06/07 11:27:30;;;;;;;7.53;6.28;;;;;;;24.10;42.66;101379.31;4980508;28;20149;-64
2022/06/07 11:30:20;;;;;;;8.02;5.88;;;;;;;24.60;41.31;101382.00;4976473;28;20468;-64
2022/06/07 11:32:54;;;;;;;10.68;7.22;;;;;;;24.14;42.47;101377.44;4956691;28;20064;-63
2022/06/07 11:35:39;;;;;;;;;;;;;;;24.09;43.07;101374.06;4979711;28;20042;-64
2022/06/07 11:38:21;;;;;;;7.78;6.07;;;;;;;24.31;44.02;101384.84;4974823;28;19922;-64
2022/06/07 11:40:47;;;;;;;9.20;6.97;;;;;;;24.37;41.58;101388.19;4968862;28;20084;-63
2022/06/07 11:43:49;;;;;;;9.38;6.70;;;;;;;24.32;44.18;101383.94;4988264;28;20496;-64
2022/06/07 11:46:50;;;;;;;9.30;6.85;;;;;;;24.09;43.41;101376.72;4954477;28;20050;-64
2022/06/07 11:49:27;;;;;;;11.30;7.07;;;;;;;23.83;43.87;101380.25;4971775;28;20045;-64
2022/06/07 11:52:12;;;;;;;12.20;7.00;;;;;;;23.96;43.33;101378.94;4969754;28;20140;-64
2022/06/07 11:54:44;;;;;;;9.45;6.72;;;;;;;23.99;43.01;101376.16;4979422;28;20413;-63